Time;durP1;ratioP1;P1;durP2;ratioP2;P2;SDS_P1;SDS_P2;PMS_P1;PMS_P2;Temp;Humidity;BMP_temperature;BMP_pressure;BME280_temperature;BME280_humidity;BME280_pressure;Samples;Min_cycle;Max_cycle;Signal;HPM_P1;HPM_P2
2022/09/24 00:00:44;;;;;;;62.83;37.27;;;7.60;99.90;;;;;;5030596;28;20026;-56
2022/09/24 00:03:10;;;;;;;66.03;39.55;;;7.50;99.90;;;;;;5028460;28;20276;-55
2022/09/24 00:05:38;;;;;;;59.07;38.03;;;7.50;99.90;;;;;;5031151;28;20037;-56
2022/09/24 00:08:07;;;;;;;61.67;37.67;;;7.60;99.90;;;;;;5025502;28;20049;-55
2022/09/24 00:10:41;;;;;;;76.55;39.67;;;7.50;99.90;;;;;;5032073;28;20485;-55
2022/09/24 00:13:08;;;;;;;69.05;38.83;;;7.50;99.90;;;;;;5028405;28;20025;-55
2022/09/24 00:15:40;;;;;;;69.10;39.72;;;7.50;99.90;;;;;;5027821;28;20489;-55
2022/09/24 00:18:06;;;;;;;71.68;40.35;;;7.40;99.90;;;;;;5027728;28;20586;-55
2022/09/24 00:20:33;;;;;;;68.32;39.53;;;7.40;99.90;;;;;;5026781;28;20042;-56
2022/09/24 00:23:00;;;;;;;66.85;40.40;;;7.50;99.90;;;;;;5029939;28;20035;-55
2022/09/24 00:28:12;;;;;;;73.20;41.33;;;7.40;99.90;;;;;;5031994;28;20047;-55
2022/09/24 00:30:39;;;;;;;69.90;41.63;;;7.40;99.90;;;;;;5029764;28;20074;-55
2022/09/24 00:33:05;;;;;;;60.25;38.05;;;7.60;99.90;;;;;;5026021;28;20420;-56
2022/09/24 00:35:35;;;;;;;60.17;37.22;;;7.50;99.90;;;;;;5031516;28;20515;-56
2022/09/24 00:38:00;;;;;;;65.78;39.75;;;7.60;99.90;;;;;;5029725;28;20633;-55
2022/09/24 00:40:28;;;;;;;68.30;39.05;;;7.50;99.90;;;;;;5029217;28;20045;-55
2022/09/24 00:42:53;;;;;;;65.22;41.47;;;7.50;99.90;;;;;;5024194;28;20057;-55
2022/09/24 00:45:19;;;;;;;69.32;40.80;;;7.50;99.90;;;;;;5029851;28;20484;-56
2022/09/24 00:47:45;;;;;;;67.15;39.92;;;7.30;99.90;;;;;;5030483;28;20033;-55
2022/09/24 00:50:37;;;;;;;64.57;40.90;;;7.30;99.90;;;;;;5031315;28;20034;-55
2022/09/24 00:53:13;;;;;;;70.75;40.67;;;7.30;99.90;;;;;;5026334;28;20037;-55
2022/09/24 00:55:42;;;;;;;65.38;40.78;;;7.30;99.90;;;;;;5028902;28;20444;-55
2022/09/24 00:58:09;;;;;;;68.90;42.92;;;7.10;99.90;;;;;;5031424;28;20114;-55
2022/09/24 01:00:42;;;;;;;68.65;41.03;;;7.00;99.90;;;;;;5008089;28;20500;-55
2022/09/24 01:03:13;;;;;;;70.40;41.42;;;7.00;99.90;;;;;;5029058;28;20060;-55
2022/09/24 01:05:38;;;;;;;64.78;41.25;;;6.90;99.90;;;;;;5029068;28;20018;-55
2022/09/24 01:08:06;;;;;;;72.57;41.70;;;7.00;99.90;;;;;;5011495;28;20483;-55
2022/09/24 01:11:06;;;;;;;66.70;40.55;;;6.90;99.90;;;;;;5029253;28;20030;-55
2022/09/24 01:14:10;;;;;;;65.70;38.88;;;7.10;99.90;;;;;;5028839;28;20029;-55
2022/09/24 01:16:35;;;;;;;64.35;37.63;;;7.10;99.90;;;;;;5025656;28;20029;-55
2022/09/24 01:19:10;;;;;;;62.92;39.55;;;7.20;99.90;;;;;;5025875;28;20148;-55
2022/09/24 01:21:44;;;;;;;61.67;38.35;;;7.10;99.90;;;;;;5030574;28;20021;-55
2022/09/24 01:24:19;;;;;;;56.88;36.70;;;7.20;99.90;;;;;;5031123;28;20535;-55
2022/09/24 01:26:51;;;;;;;68.65;37.95;;;7.30;99.90;;;;;;5030861;28;20025;-55
2022/09/24 01:29:36;;;;;;;64.32;39.67;;;7.20;99.90;;;;;;5028286;28;20025;-55
2022/09/24 01:32:20;;;;;;;63.65;39.70;;;7.10;99.90;;;;;;5027465;28;20022;-55
2022/09/24 01:34:57;;;;;;;67.57;39.65;;;6.90;99.90;;;;;;5028748;28;20025;-55
2022/09/24 01:37:27;;;;;;;65.60;37.47;;;6.70;99.90;;;;;;5030308;28;20036;-55
2022/09/24 01:39:55;;;;;;;60.20;38.15;;;6.80;99.90;;;;;;5030611;28;20052;-55
2022/09/24 01:42:23;;;;;;;67.07;40.28;;;6.70;99.90;;;;;;5029919;28;20412;-55
2022/09/24 01:44:50;;;;;;;67.47;40.42;;;6.70;99.90;;;;;;5030364;28;20099;-56
2022/09/24 01:47:28;;;;;;;69.57;41.55;;;6.70;99.90;;;;;;5030403;28;20032;-55
2022/09/24 01:49:54;;;;;;;;;;;6.50;99.90;;;;;;5030843;28;20030;-56
2022/09/24 01:52:26;;;;;;;66.47;40.88;;;6.50;99.90;;;;;;5012648;28;20422;-55
2022/09/24 01:54:55;;;;;;;62.50;40.83;;;6.50;99.90;;;;;;5030061;28;20032;-55
2022/09/24 01:57:29;;;;;;;66.57;43.13;;;6.50;99.90;;;;;;5002844;28;20017;-55
2022/09/24 02:00:15;;;;;;;71.32;43.33;;;6.60;99.90;;;;;;5027994;28;20029;-56
2022/09/24 02:03:07;;;;;;;75.32;44.42;;;6.60;99.90;;;;;;5030126;28;20029;-55
2022/09/24 02:05:42;;;;;;;67.07;41.53;;;6.40;99.90;;;;;;5029195;28;20443;-55
2022/09/24 02:08:13;;;;;;;68.05;42.33;;;6.50;99.90;;;;;;5029978;28;20026;-56
2022/09/24 02:10:48;;;;;;;69.28;42.45;;;6.50;99.90;;;;;;5029830;28;20026;-55
2022/09/24 02:13:18;;;;;;;73.75;41.08;;;6.50;99.90;;;;;;5029805;28;20041;-55
2022/09/24 02:15:49;;;;;;;69.18;43.28;;;6.50;99.90;;;;;;5012247;28;20030;-54
2022/09/24 02:18:18;;;;;;;67.43;39.58;;;6.50;99.90;;;;;;5029916;28;20036;-55
2022/09/24 02:20:46;;;;;;;69.93;40.63;;;6.50;99.90;;;;;;5029491;28;20172;-55
2022/09/24 02:23:14;;;;;;;76.97;41.67;;;6.50;99.90;;;;;;5029665;28;20010;-55
2022/09/24 02:25:52;;;;;;;76.82;42.80;;;6.50;99.90;;;;;;5011757;28;20556;-55
2022/09/24 02:28:18;;;;;;;68.47;41.08;;;6.50;99.90;;;;;;5029270;28;20115;-55
2022/09/24 02:30:50;;;;;;;68.85;40.47;;;6.50;99.90;;;;;;5029582;28;20018;-55
2022/09/24 02:36:02;;;;;;;66.20;40.45;;;6.40;99.90;;;;;;5029627;28;20490;-56
2022/09/24 02:38:28;;;;;;;64.18;39.75;;;6.40;99.90;;;;;;5029502;28;20098;-55
2022/09/24 02:40:54;;;;;;;66.50;39.10;;;6.50;99.90;;;;;;5003542;28;20046;-55
2022/09/24 02:43:20;;;;;;;65.85;39.35;;;6.50;99.90;;;;;;4988513;28;20120;-56
2022/09/24 02:45:46;;;;;;;63.47;39.03;;;6.60;99.90;;;;;;4989983;28;20033;-56
2022/09/24 02:48:11;;;;;;;61.88;37.78;;;6.50;99.90;;;;;;4981599;28;20026;-54
2022/09/24 02:50:37;;;;;;;58.97;38.55;;;6.60;99.90;;;;;;4990338;28;20076;-53
2022/09/24 02:53:02;;;;;;;54.38;37.40;;;6.60;99.90;;;;;;4990323;28;20022;-54
2022/09/24 02:55:28;;;;;;;56.53;35.95;;;6.60;99.90;;;;;;4990262;28;20164;-55
2022/09/24 02:57:54;;;;;;;56.70;36.03;;;6.60;99.90;;;;;;4986754;28;20022;-55
2022/09/24 03:00:19;;;;;;;59.58;36.03;;;6.60;99.90;;;;;;4986237;28;20375;-55
2022/09/24 03:02:46;;;;;;;62.70;36.33;;;6.40;99.90;;;;;;4987413;28;20023;-55
2022/09/24 03:05:16;;;;;;;59.90;38.28;;;6.40;99.90;;;;;;4986358;28;20023;-55
2022/09/24 03:07:43;;;;;;;61.80;37.72;;;6.50;99.90;;;;;;4989837;28;20034;-55
2022/09/24 03:10:09;;;;;;;60.83;37.47;;;6.50;99.90;;;;;;4990019;28;20030;-55
2022/09/24 03:12:34;;;;;;;59.50;36.08;;;6.40;99.90;;;;;;4990350;28;20034;-55
2022/09/24 03:15:00;;;;;;;63.67;37.58;;;6.50;99.90;;;;;;4990305;28;20033;-55
2022/09/24 03:17:27;;;;;;;63.85;38.40;;;6.50;99.90;;;;;;4993419;28;20022;-55
2022/09/24 03:19:52;;;;;;;57.35;37.90;;;6.50;99.90;;;;;;4993818;28;20058;-55
2022/09/24 03:22:18;;;;;;;67.75;39.08;;;6.50;99.90;;;;;;4993938;28;20161;-55
2022/09/24 03:24:44;;;;;;;62.25;38.75;;;6.40;99.90;;;;;;4993921;28;20022;-54
2022/09/24 03:27:10;;;;;;;62.05;38.15;;;6.40;99.90;;;;;;4993910;28;20613;-54
2022/09/24 03:32:20;;;;;;;63.08;39.63;;;6.30;99.90;;;;;;4993967;28;20054;-55
2022/09/24 03:34:46;;;;;;;66.70;39.03;;;6.30;99.90;;;;;;4993535;28;20477;-55
2022/09/24 03:37:12;;;;;;;68.63;42.38;;;6.30;99.90;;;;;;4993827;28;20027;-55
2022/09/24 03:39:38;;;;;;;71.00;42.53;;;6.30;99.90;;;;;;4993389;28;20490;-54
2022/09/24 03:42:04;;;;;;;74.72;43.78;;;6.30;99.90;;;;;;5021568;28;20188;-54
2022/09/24 03:44:29;;;;;;;68.45;43.30;;;6.20;99.90;;;;;;5014785;28;20036;-55
2022/09/24 03:46:55;;;;;;;71.65;42.20;;;6.30;99.90;;;;;;5032676;28;20477;-55
2022/09/24 03:49:22;;;;;;;72.30;44.38;;;6.30;99.90;;;;;;5032605;28;20021;-55
2022/09/24 03:51:49;;;;;;;75.20;44.72;;;6.10;99.90;;;;;;5032573;28;20028;-55
2022/09/24 03:54:15;;;;;;;64.78;41.10;;;6.20;99.90;;;;;;5032778;28;20424;-55
2022/09/24 03:56:42;;;;;;;71.60;44.83;;;6.10;99.90;;;;;;5014888;28;20111;-55
2022/09/24 03:59:11;;;;;;;69.53;45.50;;;6.10;99.90;;;;;;5015066;28;20025;-55
2022/09/24 04:01:37;;;;;;;78.93;47.28;;;6.00;99.90;;;;;;5032578;28;20029;-56
2022/09/24 04:04:03;;;;;;;70.22;45.40;;;6.10;99.90;;;;;;5028813;28;20515;-55
2022/09/24 04:06:30;;;;;;;68.07;43.15;;;6.10;99.90;;;;;;5031247;28;20049;-55
2022/09/24 04:08:56;;;;;;;70.20;44.05;;;6.20;99.90;;;;;;5027421;28;20040;-55
2022/09/24 04:11:23;;;;;;;77.65;45.10;;;6.30;99.90;;;;;;5031589;28;20037;-55
2022/09/24 04:13:49;;;;;;;77.65;43.80;;;6.20;99.90;;;;;;5032403;28;20025;-55
2022/09/24 04:16:15;;;;;;;78.75;44.95;;;6.20;99.90;;;;;;5032494;28;20030;-55
2022/09/24 04:18:41;;;;;;;74.35;45.63;;;6.20;99.90;;;;;;5032401;28;20361;-55
2022/09/24 04:21:07;;;;;;;75.60;47.95;;;6.20;99.90;;;;;;4997707;28;20048;-55
2022/09/24 04:23:33;;;;;;;89.95;49.58;;;6.20;99.90;;;;;;5032242;28;20380;-55
2022/09/24 04:26:01;;;;;;;83.32;48.90;;;6.00;99.90;;;;;;5032171;28;20029;-56
2022/09/24 04:28:28;;;;;;;77.72;48.55;;;5.90;99.90;;;;;;5013552;28;20385;-56
2022/09/24 04:30:54;;;;;;;79.60;47.28;;;5.80;99.90;;;;;;5031948;28;20100;-55
2022/09/24 04:33:20;;;;;;;79.40;47.22;;;5.80;99.90;;;;;;5028776;28;20488;-56
2022/09/24 04:35:46;;;;;;;72.55;45.72;;;5.80;99.90;;;;;;5031955;28;20026;-56
2022/09/24 04:38:12;;;;;;;70.60;44.65;;;5.80;99.90;;;;;;5031889;28;20104;-56
2022/09/24 04:40:38;;;;;;;77.35;44.63;;;5.80;99.90;;;;;;5031911;28;20041;-55
2022/09/24 04:43:05;;;;;;;75.75;45.55;;;5.80;99.90;;;;;;5032133;28;20021;-55
2022/09/24 04:45:32;;;;;;;68.20;46.22;;;5.80;99.90;;;;;;5032028;28;20108;-55
2022/09/24 04:47:58;;;;;;;69.03;44.28;;;5.80;99.90;;;;;;5013750;28;20029;-56
2022/09/24 04:50:27;;;;;;;77.22;44.45;;;5.80;99.90;;;;;;5013849;28;20029;-55
2022/09/24 04:52:54;;;;;;;75.65;44.03;;;5.80;99.90;;;;;;5031646;28;20504;-55
2022/09/24 04:55:21;;;;;;;68.10;42.47;;;5.80;99.90;;;;;;5031769;28;20547;-56
2022/09/24 04:57:47;;;;;;;73.07;44.50;;;6.00;99.90;;;;;;5013977;28;20116;-56
2022/09/24 05:00:16;;;;;;;72.82;45.85;;;5.90;99.90;;;;;;5027654;28;20092;-55
2022/09/24 05:02:42;;;;;;;68.25;42.00;;;5.90;99.90;;;;;;5031295;28;20167;-55
2022/09/24 05:05:08;;;;;;;68.37;43.07;;;6.00;99.90;;;;;;5029085;28;20091;-55
2022/09/24 05:07:39;;;;;;;72.28;45.85;;;5.90;99.90;;;;;;5031376;28;20079;-55
2022/09/24 05:10:06;;;;;;;74.97;46.45;;;5.90;99.90;;;;;;5031123;28;20030;-56
2022/09/24 05:12:34;;;;;;;73.28;46.63;;;5.90;99.90;;;;;;5013601;28;20100;-56
2022/09/24 05:15:00;;;;;;;76.03;46.35;;;5.90;99.90;;;;;;5030541;28;20076;-56
2022/09/24 05:17:26;;;;;;;72.38;45.00;;;5.90;99.90;;;;;;5030710;28;20104;-56
2022/09/24 05:19:52;;;;;;;75.40;46.45;;;5.90;99.90;;;;;;4996279;28;20149;-55
2022/09/24 05:22:19;;;;;;;71.60;45.53;;;5.90;99.90;;;;;;5030668;28;20021;-55
2022/09/24 05:24:44;;;;;;;76.53;46.55;;;6.00;99.90;;;;;;5030464;28;20029;-56
2022/09/24 05:27:10;;;;;;;76.28;47.55;;;6.10;99.90;;;;;;5030380;28;20055;-55
2022/09/24 05:29:41;;;;;;;68.38;44.17;;;6.10;99.90;;;;;;5030148;28;20334;-56
2022/09/24 05:32:09;;;;;;;72.15;44.72;;;6.20;99.90;;;;;;5030761;28;20040;-55
2022/09/24 05:34:35;;;;;;;68.57;44.28;;;6.20;99.90;;;;;;4988255;28;20030;-54
2022/09/24 05:37:02;;;;;;;69.95;44.42;;;6.20;99.90;;;;;;5009564;28;20033;-54
2022/09/24 05:39:28;;;;;;;67.80;43.33;;;6.30;99.90;;;;;;5009404;28;20057;-54
2022/09/24 05:41:55;;;;;;;71.55;46.50;;;6.30;99.90;;;;;;5010835;28;20077;-55
2022/09/24 05:44:21;;;;;;;68.72;45.08;;;6.30;99.90;;;;;;5011909;28;20576;-55
2022/09/24 05:46:48;;;;;;;75.68;48.40;;;6.30;99.90;;;;;;5030904;28;20090;-54
2022/09/24 05:49:13;;;;;;;74.28;49.45;;;6.30;99.90;;;;;;5029072;28;20021;-54
2022/09/24 05:51:39;;;;;;;74.55;50.28;;;6.40;99.90;;;;;;5030577;28;20029;-55
2022/09/24 05:54:05;;;;;;;82.55;48.75;;;6.40;99.90;;;;;;5029419;28;20038;-54
2022/09/24 05:56:31;;;;;;;79.20;50.47;;;6.40;99.90;;;;;;5009668;28;20373;-54
2022/09/24 05:58:56;;;;;;;71.78;45.97;;;6.50;99.90;;;;;;5028897;28;20049;-54
2022/09/24 06:01:23;;;;;;;71.85;46.83;;;6.60;99.90;;;;;;5028923;28;20626;-56
2022/09/24 06:03:52;;;;;;;72.18;45.63;;;6.60;99.90;;;;;;5009686;28;20022;-55
2022/09/24 06:06:18;;;;;;;72.60;47.95;;;6.70;99.90;;;;;;5007785;28;20396;-55
2022/09/24 06:08:44;;;;;;;71.13;43.75;;;6.80;99.90;;;;;;5030093;28;20488;-55
2022/09/24 06:11:09;;;;;;;77.28;47.08;;;6.80;99.90;;;;;;5029408;28;20032;-55
2022/09/24 06:13:36;;;;;;;78.05;45.38;;;6.90;99.90;;;;;;5029092;28;20053;-56
2022/09/24 06:16:03;;;;;;;70.15;46.13;;;6.90;99.90;;;;;;4994668;28;20048;-55
2022/09/24 06:18:30;;;;;;;69.72;45.40;;;6.90;99.90;;;;;;5028967;28;20099;-55
2022/09/24 06:21:01;;;;;;;69.90;45.30;;;7.00;99.90;;;;;;5011252;28;20544;-55
2022/09/24 06:23:26;;;;;;;65.00;43.72;;;7.10;99.90;;;;;;5026564;28;20046;-54
2022/09/24 06:25:52;;;;;;;72.18;46.58;;;7.20;99.90;;;;;;5028848;28;20048;-54
2022/09/24 06:28:18;;;;;;;65.78;42.72;;;7.20;99.90;;;;;;5028719;28;20491;-54
2022/09/24 06:30:43;;;;;;;70.55;43.88;;;7.30;99.90;;;;;;5028413;28;20029;-55
2022/09/24 06:33:11;;;;;;;68.18;44.30;;;7.30;99.90;;;;;;5028905;28;20033;-55
2022/09/24 06:35:41;;;;;;;75.78;46.85;;;7.40;99.90;;;;;;5028645;28;20033;-55
2022/09/24 06:38:10;;;;;;;63.35;42.42;;;7.50;99.90;;;;;;5026302;28;20136;-55
2022/09/24 06:40:37;;;;;;;65.90;44.10;;;7.60;99.90;;;;;;5028324;28;20034;-55
2022/09/24 06:43:04;;;;;;;65.70;44.38;;;7.70;99.90;;;;;;5028401;28;20108;-55
2022/09/24 06:45:30;;;;;;;71.43;49.05;;;7.80;99.90;;;;;;5028296;28;20030;-55
2022/09/24 06:47:58;;;;;;;70.97;46.88;;;7.90;99.90;;;;;;5028647;28;20021;-55
2022/09/24 06:50:26;;;;;;;74.75;45.97;;;8.00;99.90;;;;;;5028208;28;20025;-55
2022/09/24 06:52:52;;;;;;;73.50;47.25;;;8.10;99.90;;;;;;5028122;28;20021;-55
2022/09/24 06:55:18;;;;;;;69.72;47.17;;;8.20;99.90;;;;;;5028254;28;20408;-55
2022/09/24 06:57:44;;;;;;;76.90;47.47;;;8.30;99.90;;;;;;5028571;28;20040;-54
2022/09/24 07:00:11;;;;;;;72.85;47.30;;;8.40;99.90;;;;;;5027961;28;20396;-55
2022/09/24 07:02:37;;;;;;;70.53;46.20;;;8.50;99.90;;;;;;5010648;28;20499;-55
2022/09/24 07:05:03;;;;;;;66.68;45.05;;;8.60;99.90;;;;;;5028149;28;20500;-55
2022/09/24 07:07:30;;;;;;;64.65;44.22;;;8.70;99.90;;;;;;5028219;28;20269;-55
2022/09/24 07:09:56;;;;;;;68.00;45.10;;;8.80;99.90;;;;;;4994062;28;20028;-55
2022/09/24 07:12:22;;;;;;;61.70;42.63;;;8.90;99.90;;;;;;5028138;28;20049;-54
2022/09/24 07:14:48;;;;;;;66.43;42.78;;;9.00;99.90;;;;;;5028362;28;20111;-55
2022/09/24 07:17:14;;;;;;;63.22;43.05;;;9.10;99.90;;;;;;5028078;28;20381;-55
2022/09/24 07:19:40;;;;;;;61.38;41.05;;;9.20;99.90;;;;;;5027956;28;20452;-54
2022/09/24 07:22:06;;;;;;;68.75;41.13;;;9.30;99.90;;;;;;5026009;28;20025;-54
2022/09/24 07:24:32;;;;;;;64.50;42.88;;;9.40;99.90;;;;;;5029459;28;20025;-54
2022/09/24 07:26:58;;;;;;;55.15;40.08;;;9.50;99.90;;;;;;5029403;28;20498;-54
2022/09/24 07:29:24;;;;;;;56.80;39.45;;;9.60;99.90;;;;;;5029263;28;20049;-54
2022/09/24 07:31:50;;;;;;;58.63;40.08;;;9.60;99.90;;;;;;5028989;28;20026;-54
2022/09/24 07:34:15;;;;;;;61.30;39.05;;;9.80;99.90;;;;;;5029230;28;20030;-55
2022/09/24 07:36:42;;;;;;;59.92;39.80;;;9.80;99.90;;;;;;5028316;28;20021;-54
2022/09/24 07:39:08;;;;;;;56.20;38.87;;;10.00;99.90;;;;;;5028933;28;20029;-55
2022/09/24 07:41:34;;;;;;;58.20;39.03;;;10.00;99.90;;;;;;5011099;28;20054;-54
2022/09/24 07:44:00;;;;;;;62.00;40.60;;;10.20;99.90;;;;;;5029001;28;20021;-54
2022/09/24 07:46:25;;;;;;;58.80;39.75;;;10.20;99.90;;;;;;5028844;28;20033;-54
2022/09/24 07:48:55;;;;;;;58.95;38.15;;;10.30;99.90;;;;;;5029015;28;20025;-54
2022/09/24 07:51:26;;;;;;;56.38;38.85;;;10.40;99.90;;;;;;5028941;28;20509;-54
2022/09/24 07:53:52;;;;;;;53.22;37.08;;;10.50;99.90;;;;;;5029306;28;20034;-55
2022/09/24 07:56:18;;;;;;;51.00;34.90;;;10.60;99.90;;;;;;5028916;28;20025;-54
2022/09/24 07:58:47;;;;;;;48.80;33.92;;;10.70;99.90;;;;;;5028572;28;20030;-54
2022/09/24 08:01:13;;;;;;;44.58;30.77;;;10.80;99.90;;;;;;5028189;28;20120;-54
2022/09/24 08:03:39;;;;;;;51.88;34.75;;;10.90;99.90;;;;;;5030444;28;20021;-54
2022/09/24 08:06:05;;;;;;;47.20;32.03;;;11.00;99.90;;;;;;5032101;28;20041;-55
2022/09/24 08:08:31;;;;;;;52.47;34.85;;;11.20;99.90;;;;;;5032613;28;20014;-54
2022/09/24 08:10:56;;;;;;;46.40;33.72;;;11.20;99.90;;;;;;5032554;28;20029;-53
2022/09/24 08:13:23;;;;;;;49.70;30.90;;;11.30;99.90;;;;;;5032554;28;20087;-54
2022/09/24 08:15:57;;;;;;;40.75;28.35;;;11.40;99.90;;;;;;5014618;28;20030;-54
2022/09/24 08:18:23;;;;;;;38.80;26.27;;;11.50;99.90;;;;;;5032414;28;20032;-53
2022/09/24 08:20:49;;;;;;;36.55;26.48;;;11.50;99.90;;;;;;5032322;28;20042;-54
2022/09/24 08:23:14;;;;;;;37.08;24.65;;;11.70;99.90;;;;;;5032384;28;20567;-54
2022/09/24 08:25:40;;;;;;;37.22;24.42;;;11.80;99.90;;;;;;5032121;28;20045;-54
2022/09/24 08:28:07;;;;;;;34.42;23.25;;;12.00;99.90;;;;;;5032412;28;20095;-55
2022/09/24 08:30:34;;;;;;;35.58;23.23;;;12.00;99.90;;;;;;5031713;28;20032;-55
2022/09/24 08:33:00;;;;;;;29.97;21.40;;;12.10;99.90;;;;;;5031975;28;20544;-54
2022/09/24 08:35:26;;;;;;;25.23;16.55;;;12.20;99.90;;;;;;5032332;28;20032;-54
2022/09/24 08:37:54;;;;;;;14.40;9.73;;;12.30;99.90;;;;;;5032066;28;20105;-54
2022/09/24 08:40:23;;;;;;;12.85;8.05;;;12.40;99.90;;;;;;5031858;28;20520;-55
2022/09/24 08:43:27;;;;;;;15.75;9.30;;;12.50;99.90;;;;;;5014268;28;20057;-54
2022/09/24 08:48:48;;;;;;;21.88;13.75;;;12.70;99.90;;;;;;5032199;28;20033;-54
2022/09/24 08:51:18;;;;;;;18.27;11.88;;;12.70;99.90;;;;;;5031800;28;20393;-55
2022/09/24 08:53:43;;;;;;;19.92;12.95;;;12.80;99.90;;;;;;5013776;28;20091;-54
2022/09/24 08:56:10;;;;;;;18.98;12.52;;;12.70;99.90;;;;;;5031472;28;20398;-54
2022/09/24 08:58:54;;;;;;;17.42;11.40;;;12.60;99.90;;;;;;5031699;28;20084;-55
2022/09/24 09:01:47;;;;;;;17.73;11.40;;;12.60;99.90;;;;;;5031628;28;20049;-54
2022/09/24 09:04:31;;;;;;;21.48;11.68;;;12.70;99.90;;;;;;5031266;28;20480;-54
2022/09/24 09:07:15;;;;;;;15.63;10.52;;;12.70;99.90;;;;;;5031195;28;20037;-55
2022/09/24 09:09:47;;;;;;;17.38;10.05;;;12.60;99.90;;;;;;5031230;28;20069;-54
2022/09/24 09:12:28;;;;;;;17.83;10.65;;;12.70;99.90;;;;;;5031029;28;20037;-54
2022/09/24 09:15:12;;;;;;;21.70;10.60;;;12.70;99.90;;;;;;5031188;28;20029;-54
2022/09/24 09:17:47;;;;;;;14.30;10.18;;;12.80;99.90;;;;;;5031183;28;20041;-55
2022/09/24 09:20:20;;;;;;;14.30;9.10;;;13.00;99.90;;;;;;5031087;28;20119;-55
2022/09/24 09:22:50;;;;;;;13.73;8.90;;;13.10;99.90;;;;;;5031217;28;20036;-54
2022/09/24 09:25:23;;;;;;;13.15;8.57;;;13.30;99.90;;;;;;5031318;28;20028;-55
2022/09/24 09:27:54;;;;;;;14.90;8.52;;;13.40;99.90;;;;;;5031331;28;20025;-55
2022/09/24 09:30:20;;;;;;;12.57;7.90;;;13.60;99.90;;;;;;5031264;28;20061;-55
2022/09/24 09:33:11;;;;;;;12.07;7.35;;;13.60;99.90;;;;;;5030497;28;20036;-55
2022/09/24 09:35:55;;;;;;;14.50;8.85;;;13.80;99.90;;;;;;5029428;28;20508;-54
2022/09/24 09:38:28;;;;;;;15.65;9.82;;;13.90;99.90;;;;;;5025059;28;20139;-55
2022/09/24 09:41:32;;;;;;;19.05;11.50;;;13.80;99.90;;;;;;5030627;28;20052;-55
2022/09/24 09:44:21;;;;;;;18.05;10.85;;;13.90;99.90;;;;;;5030125;28;20079;-54
2022/09/24 09:47:04;;;;;;;20.25;10.80;;;13.80;99.90;;;;;;5011751;28;20392;-54
2022/09/24 09:49:37;;;;;;;17.90;11.57;;;13.90;99.90;;;;;;5009564;28;20120;-55
2022/09/24 09:52:13;;;;;;;19.88;12.63;;;13.80;99.90;;;;;;5029333;28;20469;-54
2022/09/24 09:54:40;;;;;;;18.27;11.23;;;13.90;99.90;;;;;;5013113;28;20026;-54
2022/09/24 09:57:17;;;;;;;19.48;12.13;;;13.90;99.90;;;;;;5029644;28;20022;-54
2022/09/24 09:59:49;;;;;;;17.88;11.35;;;14.00;99.90;;;;;;5026190;28;20075;-54
2022/09/24 10:02:23;;;;;;;17.95;12.13;;;14.00;99.90;;;;;;5025603;28;20063;-55
2022/09/24 10:04:56;;;;;;;20.83;10.80;;;14.00;99.90;;;;;;5024843;28;20052;-54
2022/09/24 10:07:22;;;;;;;24.55;10.98;;;14.10;99.90;;;;;;5030108;28;20018;-54
2022/09/24 10:10:16;;;;;;;13.90;9.77;;;14.10;99.90;;;;;;5010723;28;20436;-54
2022/09/24 10:12:41;;;;;;;15.27;8.98;;;14.00;99.90;;;;;;5029093;28;20437;-54
2022/09/24 10:15:13;;;;;;;18.15;9.38;;;14.00;99.90;;;;;;5029187;28;20044;-54
2022/09/24 10:17:40;;;;;;;12.90;9.02;;;14.00;99.90;;;;;;5028529;28;20025;-54
2022/09/24 10:20:15;;;;;;;21.27;12.90;;;14.00;99.90;;;;;;5028174;28;20042;-55
2022/09/24 10:22:50;;;;;;;18.40;10.05;;;14.10;99.90;;;;;;5026838;28;20034;-55
2022/09/24 10:25:23;;;;;;;16.23;10.02;;;14.10;99.90;;;;;;5029679;28;20071;-55
2022/09/24 10:27:52;;;;;;;15.63;10.65;;;14.30;99.90;;;;;;5029560;28;20026;-55
2022/09/24 10:30:33;;;;;;;14.77;10.63;;;14.30;99.90;;;;;;5029569;28;20086;-55
2022/09/24 10:33:01;;;;;;;18.98;11.40;;;14.50;99.90;;;;;;5027258;28;20041;-55
2022/09/24 10:35:33;;;;;;;18.38;9.48;;;14.60;99.90;;;;;;5029067;28;20064;-54
2022/09/24 10:38:00;;;;;;;23.45;10.73;;;14.90;99.90;;;;;;5028658;28;20040;-55
2022/09/24 10:40:30;;;;;;;17.77;10.45;;;14.90;99.90;;;;;;5027022;28;20037;-55
2022/09/24 10:43:01;;;;;;;14.90;10.13;;;15.40;99.90;;;;;;5025910;28;20017;-54
2022/09/24 10:45:46;;;;;;;16.38;10.93;;;15.60;99.90;;;;;;5025889;28;20029;-54
2022/09/24 10:48:24;;;;;;;15.38;9.60;;;15.70;99.90;;;;;;5025373;28;20095;-55
2022/09/24 10:51:47;;;;;;;13.38;8.27;;;15.70;99.90;;;;;;5025187;28;20149;-54
2022/09/24 10:54:34;;;;;;;13.10;7.40;;;15.70;99.90;;;;;;4928091;29;20098;-55
2022/09/24 10:57:24;;;;;;;11.20;7.18;;;15.80;99.90;;;;;;4928448;29;20095;-55
2022/09/24 11:00:18;;;;;;;9.60;6.10;;;16.00;99.90;;;;;;4995602;28;20029;-55
2022/09/24 11:03:02;;;;;;;12.07;4.90;;;16.00;98.50;;;;;;5021443;28;20549;-54
2022/09/24 11:06:01;;;;;;;12.82;7.50;;;16.00;96.90;;;;;;5013291;28;20025;-54
2022/09/24 11:08:54;;;;;;;15.27;8.60;;;16.00;98.00;;;;;;5019532;28;20348;-55
2022/09/24 11:11:33;;;;;;;8.52;5.47;;;16.10;97.40;;;;;;5024442;28;20060;-54
2022/09/24 11:14:24;;;;;;;8.27;5.20;;;16.20;97.60;;;;;;5008408;28;20032;-55
2022/09/24 11:17:16;;;;;;;10.70;6.47;;;16.40;99.90;;;;;;5024045;28;20473;-55
2022/09/24 11:19:53;;;;;;;11.90;6.85;;;16.80;99.90;;;;;;5028489;28;20493;-55
2022/09/24 11:22:41;;;;;;;14.73;7.55;;;17.20;97.40;;;;;;5010525;28;20017;-56
2022/09/24 11:25:20;;;;;;;13.35;6.85;;;17.90;99.10;;;;;;5010347;28;20042;-56
2022/09/24 11:28:01;;;;;;;11.52;7.32;;;18.20;96.30;;;;;;5028389;28;20073;-54
2022/09/24 11:30:51;;;;;;;79.82;56.95;;;18.40;97.10;;;;;;5029483;28;20203;-55
2022/09/24 11:33:38;;;;;;;30.25;20.67;;;19.10;94.60;;;;;;5020928;28;20510;-56
2022/09/24 11:36:14;;;;;;;11.07;6.78;;;19.40;92.80;;;;;;5028034;28;20059;-55
2022/09/24 11:39:15;;;;;;;7.85;5.22;;;19.40;91.90;;;;;;5012724;28;20087;-55
2022/09/24 11:41:51;;;;;;;11.55;5.55;;;19.40;91.00;;;;;;4998600;28;20056;-55
2022/09/24 11:44:29;;;;;;;7.53;4.93;;;18.90;90.30;;;;;;5033133;28;20037;-55
2022/09/24 11:47:27;;;;;;;7.00;4.85;;;18.80;91.30;;;;;;5013574;28;20488;-54
2022/09/24 11:50:05;;;;;;;8.32;5.57;;;19.00;92.00;;;;;;5007202;28;20049;-56
2022/09/24 11:52:36;;;;;;;10.98;5.32;;;18.70;91.90;;;;;;5032025;28;20389;-56
2022/09/24 11:55:05;;;;;;;8.90;5.35;;;18.70;91.70;;;;;;5032356;28;20064;-55
2022/09/24 11:57:41;;;;;;;9.43;4.80;;;18.50;92.20;;;;;;5031673;28;20108;-56
2022/09/24 12:00:16;;;;;;;10.95;4.80;;;18.70;92.40;;;;;;5031735;28;20544;-54
2022/09/24 12:02:42;;;;;;;6.95;3.90;;;18.70;92.20;;;;;;5031858;28;20029;-55
2022/09/24 12:05:29;;;;;;;8.68;5.55;;;18.90;91.50;;;;;;5031948;28;20093;-55
2022/09/24 12:08:26;;;;;;;9.55;6.32;;;19.30;91.80;;;;;;5031466;28;20081;-55
2022/09/24 12:11:01;;;;;;;7.05;4.22;;;19.60;88.10;;;;;;5032008;28;20052;-55
2022/09/24 12:13:40;;;;;;;7.95;4.13;;;19.80;90.40;;;;;;5031993;28;20018;-55
2022/09/24 12:16:23;;;;;;;9.35;4.93;;;20.00;87.30;;;;;;5031654;28;20091;-56
2022/09/24 12:19:05;;;;;;;11.00;5.22;;;19.40;85.90;;;;;;5031584;28;20018;-55
2022/09/24 12:21:40;;;;;;;9.38;4.78;;;19.20;86.40;;;;;;5031785;28;20050;-56
2022/09/24 12:24:29;;;;;;;7.47;5.45;;;19.00;88.30;;;;;;5013532;28;20044;-56
2022/09/24 12:26:58;;;;;;;7.65;4.78;;;19.00;87.70;;;;;;5014068;28;20151;-56
2022/09/24 12:32:53;;;;;;;10.48;5.50;;;18.70;90.30;;;;;;5029531;28;20495;-55
2022/09/24 12:35:25;;;;;;;8.63;4.63;;;18.70;86.50;;;;;;5029468;28;20040;-55
2022/09/24 12:37:57;;;;;;;9.05;4.75;;;18.70;89.60;;;;;;5030971;28;20392;-55
2022/09/24 12:40:29;;;;;;;13.13;5.30;;;18.30;88.50;;;;;;5031539;28;20141;-56
2022/09/24 12:42:59;;;;;;;9.32;5.13;;;18.40;90.20;;;;;;5032070;28;20036;-56
2022/09/24 12:45:25;;;;;;;9.07;5.00;;;18.70;89.80;;;;;;5031862;28;20193;-55
2022/09/24 12:47:55;;;;;;;7.68;5.03;;;19.00;91.40;;;;;;5031935;28;20021;-55
2022/09/24 12:50:34;;;;;;;9.15;5.35;;;19.30;90.50;;;;;;5031203;28;20038;-55
2022/09/24 12:53:00;;;;;;;9.80;4.70;;;19.70;83.60;;;;;;5011849;28;20075;-55
2022/09/24 12:55:29;;;;;;;10.75;5.60;;;20.00;91.10;;;;;;5011771;28;20032;-56
2022/09/24 12:58:04;;;;;;;9.10;4.57;;;20.40;85.90;;;;;;5021666;28;20030;-55
2022/09/24 13:00:42;;;;;;;7.68;4.20;;;20.60;88.00;;;;;;5011696;28;20065;-56
2022/09/24 13:03:35;;;;;;;13.00;4.95;;;20.70;83.80;;;;;;5010943;28;20100;-55
2022/09/24 13:06:02;;;;;;;9.05;4.50;;;20.40;77.60;;;;;;5010748;28;20044;-55
2022/09/24 13:08:39;;;;;;;7.38;4.07;;;20.30;84.20;;;;;;5010841;28;20033;-55
2022/09/24 13:11:25;;;;;;;9.20;4.30;;;19.90;81.80;;;;;;5024156;28;20512;-55